Popple, Minnesota
Current Conditions -  °F | °C
As of 11:55 AM on Monday 22 Dec 2014 (Local Time) from KFSE Reporting Station
Moderate Rain Moderate Rain  
Wind Chill: 28°   Ceiling: 1100
Heat Index: 34°   Visibility: 7mi
Dew Point: 34°   Wind: 7mph
Humidity: 100%   Direction: 100°E
Pressure: 29.55"   Gusts: NA
Location:  47.3892°N, 95.4294°W
Report Text: KFSE 221755Z AUTO 10006KT 7SM RA OVC011 01/01 A2955 RMK AO2
Loading
Personal Weather Stations






























Interactive Weather Map New forecast layout! Learn more

10-Day Weather Forecast

Advertisements
Track Severe Weather on mobile